Time;durP1;ratioP1;P1;durP2;ratioP2;P2;SDS_P1;SDS_P2;PMS_P1;PMS_P2;Temp;Humidity;BMP_temperature;BMP_pressure;BME280_temperature;BME280_humidity;BME280_pressure;Samples;Min_cycle;Max_cycle;Signal;HPM_P1;HPM_P2
2022/02/10 00:04:08;;;;;;;;;7.00;6.00;;;;;12.94;43.09;99496.91;6222306;27;96659;-69
2022/02/10 00:14:23;;;;;;;;;9.00;9.00;;;;;13.06;42.64;99502.41;6243866;27;96565;-69
2022/02/10 00:17:37;;;;;;;;;9.00;8.00;;;;;13.08;42.71;99503.84;6251046;27;97030;-69
2022/02/10 00:20:47;;;;;;;;;9.00;9.00;;;;;13.07;42.77;99501.34;6247274;27;97478;-69
2022/02/10 00:24:10;;;;;;;;;9.00;9.00;;;;;13.11;42.73;99507.97;6242437;27;98421;-69
2022/02/10 00:34:25;;;;;;;;;8.50;8.00;;;;;13.06;42.74;99505.09;6120339;27;97733;-68
2022/02/10 00:37:37;;;;;;;;;11.00;10.00;;;;;13.02;42.92;99492.03;6245151;27;99654;-70
2022/02/10 00:40:41;;;;;;;;;9.00;8.40;;;;;13.01;42.91;99489.53;6264556;27;97463;-69
2022/02/10 00:43:44;;;;;;;;;8.00;8.00;;;;;12.98;42.76;99490.81;6209040;27;97865;-69
2022/02/10 00:46:49;;;;;;;;;11.00;10.00;;;;;12.98;42.76;99490.81;6263895;27;97165;-69
2022/02/10 00:49:52;;;;;;;;;10.50;8.75;;;;;13.09;42.75;99491.16;6264187;27;96351;-69
2022/02/10 00:53:01;;;;;;;;;8.00;8.00;;;;;13.07;42.50;99491.34;6262068;27;97455;-69
2022/02/10 00:56:06;;;;;;;;;8.20;8.20;;;;;13.12;42.64;99491.56;6237643;27;96797;-69
2022/02/10 00:59:19;;;;;;;;;9.00;9.00;;;;;13.12;42.65;99488.00;6248083;27;97828;-70
2022/02/10 01:12:43;;;;;;;;;9.50;9.00;;;;;12.96;42.84;99475.84;6243153;27;98003;-69
2022/02/10 01:32:31;;;;;;;;;11.00;10.00;;;;;12.75;43.36;99460.03;6231309;27;98011;-69
2022/02/10 01:35:36;;;;;;;;;9.00;8.00;;;;;12.73;43.52;99454.00;6263856;27;97545;-69
2022/02/10 01:38:39;;;;;;;;;9.00;8.00;;;;;12.79;43.34;99453.94;6263076;27;96617;-70
2022/02/10 01:42:30;;;;;;;;;10.33;10.00;;;;;12.80;43.22;99446.66;6244978;27;96817;-70
2022/02/10 02:05:39;;;;;;;;;10.50;10.00;;;;;13.00;42.93;99439.16;6243530;27;98046;-70
2022/02/10 02:08:44;;;;;;;;;10.00;9.75;;;;;12.99;42.78;99438.34;6261997;27;96561;-70
2022/02/10 02:11:51;;;;;;;;;9.80;9.00;;;;;12.82;43.08;99431.84;6263276;27;96552;-70
2022/02/10 02:14:55;;;;;;;;;9.00;7.60;;;;;12.87;43.03;99442.00;6239479;27;97111;-69
2022/02/10 02:17:58;;;;;;;;;12.00;11.25;;;;;12.89;42.91;99448.03;6239521;27;96824;-68
2022/02/10 02:21:02;;;;;;;;;11.25;9.25;;;;;12.91;42.97;99437.78;6249897;27;96829;-69
2022/02/10 02:24:07;;;;;;;;;10.00;8.50;;;;;12.93;42.79;99441.94;6228043;27;96611;-69
2022/02/10 02:27:16;;;;;;;;;9.40;9.00;;;;;12.89;42.70;99443.44;6239527;27;97120;-69
2022/02/10 02:30:24;;;;;;;;;8.00;7.00;;;;;12.91;42.75;99441.31;6263232;27;96372;-70
2022/02/10 02:37:17;;;;;;;;;8.00;8.00;;;;;12.96;42.60;99441.50;6242479;27;97051;-70
2022/02/10 03:04:24;;;;;;;;;12.25;12.00;;;;;13.15;42.25;99447.78;6259187;27;97452;-70
2022/02/10 03:07:37;;;;;;;;;10.00;10.00;;;;;13.17;42.24;99442.97;6260117;27;97113;-69
2022/02/10 03:10:58;;;;;;;;;10.00;10.00;;;;;13.18;42.36;99447.34;6235376;27;100278;-69
2022/02/10 03:14:08;;;;;;;;;11.80;10.00;;;;;13.00;42.04;99423.75;6226986;28;97442;-68
2022/02/10 03:20:44;;;;;;;;;11.50;10.00;;;;;13.18;41.94;99433.81;6208600;28;96957;-69
2022/02/10 04:01:38;;;;;;;;;9.00;9.00;;;;;13.20;41.43;99398.38;6153035;28;96849;-70
2022/02/10 04:08:15;;;;;;;;;8.50;8.00;;;;;13.25;41.46;99410.19;6156161;28;96953;-70
2022/02/10 04:11:37;;;;;;;;;8.00;7.00;;;;;13.24;41.76;99410.41;6163254;28;97401;-69
2022/02/10 04:14:46;;;;;;;;;10.00;9.00;;;;;13.25;42.00;99412.06;6163493;28;97421;-70
2022/02/10 04:18:12;;;;;;;;;8.60;8.00;;;;;13.26;41.77;99409.13;6147551;28;97501;-70
2022/02/10 04:21:34;;;;;;;;;7.00;7.00;;;;;13.19;41.57;99402.97;6213001;27;97870;-69
2022/02/10 04:25:01;;;;;;;;;8.00;8.00;;;;;13.22;41.81;99407.94;6240462;28;96423;-69
2022/02/10 04:28:17;;;;;;;;;8.80;8.00;;;;;13.20;41.71;99401.91;6244170;27;96849;-68
2022/02/10 04:38:48;;;;;;;;;9.00;8.00;;;;;13.18;41.86;99403.19;6240403;27;96577;-69
2022/02/10 04:59:01;;;;;;;;;9.00;8.60;;;;;13.15;42.19;99403.63;6234795;27;97655;-69
2022/02/10 05:02:35;;;;;;;;;8.40;7.80;;;;;13.14;41.96;99392.00;6218990;28;98428;-68
2022/02/10 05:13:19;;;;;;;;;9.00;8.00;;;;;13.12;42.33;99398.69;6204125;27;96833;-69
2022/02/10 05:22:49;;;;;;;;;8.00;7.80;;;;;13.08;41.98;99375.78;6252384;27;96860;-68
2022/02/10 05:35:58;;;;;;;;;10.00;10.00;;;;;13.21;42.09;99389.19;6224802;27;96630;-70
2022/02/10 05:39:09;;;;;;;;;7.20;7.00;;;;;13.20;42.11;99393.78;6237025;27;97961;-70
2022/02/10 05:42:37;;;;;;;;;6.00;6.00;;;;;13.24;41.79;99392.25;6260339;27;96664;-69
2022/02/10 05:45:47;;;;;;;;;8.33;8.33;;;;;13.25;42.17;99391.22;6250367;27;97173;-69
2022/02/10 05:49:13;;;;;;;;;8.00;7.60;;;;;13.23;41.99;99397.94;6242283;27;96436;-69
2022/02/10 05:52:49;;;;;;;;;8.00;8.00;;;;;13.19;42.07;99405.69;6219959;27;99621;-70
2022/02/10 05:56:05;;;;;;;;;9.00;9.00;;;;;13.22;42.04;99402.50;6254135;27;97491;-69
2022/02/10 06:53:31;;;;;;;;;14.75;13.25;;;;;13.19;42.33;99408.41;6232278;27;96661;-69
2022/02/10 07:03:56;;;;;;;;;12.00;11.25;;;;;13.12;42.18;99399.50;6168830;28;97789;-72
2022/02/10 07:07:25;;;;;;;;;14.00;13.00;;;;;13.15;42.18;99396.34;6221556;28;96559;-70
2022/02/10 07:14:32;;;;;;;;;11.00;10.00;;;;;13.24;42.12;99400.38;6221955;27;97738;-69
2022/02/10 07:48:18;;;;;;;;;12.00;11.25;;;;;13.76;40.71;99374.50;6212538;28;96386;-67
2022/02/10 07:55:23;;;;;;;;;13.20;11.60;;;;;13.79;40.57;99375.91;6202985;28;97393;-67
2022/02/10 07:58:38;;;;;;;;;13.00;12.00;;;;;13.79;40.71;99376.75;6231094;27;96773;-68
2022/02/10 08:55:48;;;;;;;;;16.00;13.00;;;;;14.41;39.84;99344.75;6234179;27;98100;-70
2022/02/10 08:59:23;;;;;;;;;12.33;11.00;;;;;14.45;39.91;99343.19;6227055;28;96813;-71
2022/02/10 09:06:04;;;;;;;;;7.20;7.20;;;;;14.58;39.92;99344.84;6220641;27;97217;-70
2022/02/10 09:13:02;;;;;;;;;9.00;8.20;;;;;14.27;39.70;99308.81;6166611;28;97791;-69
2022/02/10 09:16:36;;;;;;;;;7.00;6.20;;;;;14.45;39.49;99342.38;6262603;27;96426;-69
2022/02/10 09:56:53;;;;;;;;;8.00;8.00;;;;;14.44;39.33;99308.16;6248662;27;96620;-70
2022/02/10 10:00:13;;;;;;;;;10.00;8.00;;;;;14.54;39.04;99319.25;6239042;27;99301;-71
2022/02/10 10:03:22;;;;;;;;;8.00;7.00;;;;;14.65;38.97;99307.56;6249884;27;96553;-72
2022/02/10 10:06:48;;;;;;;;;7.00;6.00;;;;;14.62;38.69;99297.16;6238617;28;97339;-70
2022/02/10 10:10:24;;;;;;;;;9.50;8.50;;;;;14.74;38.87;99301.53;6233361;27;97363;-70
2022/02/10 10:17:04;;;;;;;;;7.40;7.00;;;;;15.05;38.20;99283.19;6263313;27;97349;-71
2022/02/10 10:20:18;;;;;;;;;8.00;7.40;;;;;14.95;37.90;99275.66;6237024;27;97766;-71
2022/02/10 10:23:37;;;;;;;;;9.00;8.00;;;;;14.69;37.97;99233.56;6242951;27;96823;-69
2022/02/10 10:27:07;;;;;;;;;7.60;7.00;;;;;14.80;38.19;99258.22;6238320;28;96521;-70
2022/02/10 10:50:43;;;;;;;;;7.00;6.00;;;;;15.08;36.95;99222.94;6242644;27;96491;-70
2022/02/10 10:53:52;;;;;;;;;7.00;6.00;;;;;15.08;36.95;99220.22;6241889;27;97670;-69
2022/02/10 10:57:02;;;;;;;;;6.00;5.00;;;;;15.11;36.88;99200.72;6232623;27;97721;-68
2022/02/10 11:00:27;;;;;;;;;6.00;6.00;;;;;15.19;36.73;99208.50;6237526;27;96889;-69
2022/02/10 11:37:38;;;;;;;;;5.80;5.00;;;;;16.23;36.00;99152.53;6251269;27;96954;-68
2022/02/10 11:45:33;;;;;;;;;7.25;7.00;;;;;16.33;35.35;99128.19;6236794;27;96668;-67
2022/02/10 12:29:53;;;;;;;;;7.00;7.00;;;;;16.81;33.69;99064.00;6246066;27;96669;-66
2022/02/10 12:41:56;;;;;;;;;6.00;5.00;;;;;17.46;33.17;99049.25;6235034;27;98323;-69
2022/02/10 13:23:40;;;;;;;;;5.40;5.00;;;;;20.73;27.98;98984.78;6257461;27;97233;-67
2022/02/10 14:14:46;;;;;;;;;6.80;6.20;;;;;19.87;29.83;98966.09;6141228;28;97644;-74
2022/02/10 14:18:05;;;;;;;;;7.00;6.00;;;;;18.83;29.99;98893.09;6148006;28;97886;-71
2022/02/10 14:21:13;;;;;;;;;7.40;7.40;;;;;19.23;30.48;98959.69;6226827;28;97237;-71
2022/02/10 14:27:39;;;;;;;;;6.25;6.00;;;;;19.07;31.23;98942.50;6235095;28;97713;-70
2022/02/10 14:30:42;;;;;;;;;8.00;8.00;;;;;19.00;31.26;98951.00;6230877;28;97528;-69
2022/02/10 14:33:49;;;;;;;;;7.25;6.25;;;;;19.00;31.03;98941.97;6236205;28;97464;-70
2022/02/10 14:37:10;;;;;;;;;6.00;5.00;;;;;18.83;31.28;98938.69;6231599;28;99601;-71
2022/02/10 14:40:34;;;;;;;;;6.25;5.25;;;;;18.61;31.60;98933.53;6235239;28;97493;-71
2022/02/10 15:11:08;;;;;;;;;6.00;5.25;;;;;17.03;33.88;98914.09;6229493;27;96558;-73
2022/02/10 15:54:54;;;;;;;;;7.00;6.00;;;;;15.64;36.65;98876.91;6132665;28;98111;-73
2022/02/10 16:11:40;;;;;;;;;8.60;6.00;;;;;15.55;36.63;98860.25;6264132;27;97018;-70
2022/02/10 16:15:10;;;;;;;;;5.60;5.60;;;;;15.44;36.61;98855.72;6243664;27;96708;-71
2022/02/10 16:18:14;;;;;;;;;6.20;6.00;;;;;15.39;36.83;98855.69;6262688;27;97987;-70
2022/02/10 16:21:29;;;;;;;;;8.00;7.00;;;;;15.41;38.38;98863.56;6262279;27;97451;-71
2022/02/10 16:24:36;;;;;;;;;8.00;7.00;;;;;15.52;37.13;98858.03;6240707;27;99490;-70
2022/02/10 16:27:48;;;;;;;;;7.00;7.00;;;;;15.54;36.67;98855.06;6243267;27;99733;-72
2022/02/10 16:30:55;;;;;;;;;7.20;7.00;;;;;15.55;36.61;98846.66;6263071;27;97376;-72
2022/02/10 16:34:06;;;;;;;;;7.25;6.25;;;;;15.53;36.70;98837.13;6261868;27;97626;-76
2022/02/10 16:37:15;;;;;;;;;8.80;8.00;;;;;15.26;36.86;98812.59;6245356;27;97819;-73
2022/02/10 16:40:23;;;;;;;;;9.00;8.00;;;;;15.38;37.08;98821.44;6249035;27;96735;-73
2022/02/10 16:43:32;;;;;;;;;11.00;10.00;;;;;15.35;36.95;98821.09;6225633;27;98351;-70
2022/02/10 16:46:41;;;;;;;;;10.00;9.00;;;;;15.37;36.87;98830.66;6244392;27;97301;-70
2022/02/10 16:49:52;;;;;;;;;11.00;11.00;;;;;15.32;37.00;98832.50;6263341;27;96588;-70
2022/02/10 16:53:05;;;;;;;;;12.40;11.00;;;;;15.34;36.88;98820.31;6222069;27;96703;-70
2022/02/10 16:56:19;;;;;;;;;12.25;10.00;;;;;15.33;36.84;98824.09;6261310;27;97219;-72
2022/02/10 16:59:38;;;;;;;;;12.00;11.00;;;;;15.27;36.94;98816.13;6244005;27;96708;-71
2022/02/10 17:20:11;;;;;;;;;13.60;12.40;;;;;15.15;36.93;98818.97;6225370;27;98557;-74
2022/02/10 17:26:48;;;;;;;;;16.00;14.00;;;;;15.01;37.24;98823.97;6257543;27;97813;-71
2022/02/10 17:30:24;;;;;;;;;15.00;13.00;;;;;15.01;37.09;98809.56;6241163;27;99046;-71
2022/02/10 17:33:32;;;;;;;;;14.50;13.00;;;;;14.97;37.44;98805.72;6239752;27;100704;-71
2022/02/10 17:36:44;;;;;;;;;15.75;15.00;;;;;14.90;37.29;98805.09;6224343;27;99633;-69
2022/02/10 17:46:41;;;;;;;;;16.80;15.00;;;;;14.91;37.11;98798.56;6241699;27;98681;-69
2022/02/10 17:53:14;;;;;;;;;18.00;17.00;;;;;14.74;37.34;98782.34;6245677;27;97498;-67
2022/02/10 17:56:17;;;;;;;;;20.50;19.00;;;;;14.80;37.44;98803.06;6228012;27;97194;-70
2022/02/10 17:59:21;;;;;;;;;20.00;18.00;;;;;14.80;37.49;98815.81;6261697;27;96521;-70
2022/02/10 18:02:25;;;;;;;;;19.40;18.40;;;;;14.80;37.40;98826.66;6260953;27;96671;-73
2022/02/10 18:09:24;;;;;;;;;17.60;16.60;;;;;14.72;37.62;98819.75;6238522;27;97124;-67
2022/02/10 18:16:01;;;;;;;;;21.67;20.67;;;;;14.63;37.92;98829.41;6240911;27;97385;-73
2022/02/10 18:19:09;;;;;;;;;25.20;22.40;;;;;14.61;37.87;98829.63;6243364;27;98270;-73
2022/02/10 18:29:31;;;;;;;;;25.00;24.00;;;;;14.35;38.11;98827.59;6247623;27;97979;-73
2022/02/10 19:06:58;;;;;;;;;23.00;20.00;;;;;13.93;39.42;98826.38;6239970;27;96452;-71
2022/02/10 19:10:03;;;;;;;;;22.80;21.60;;;;;13.90;39.43;98838.50;6246639;27;97640;-72
2022/02/10 19:13:09;;;;;;;;;18.40;15.80;;;;;13.93;39.47;98840.72;6222954;28;99073;-72
2022/02/10 19:16:13;;;;;;;;;20.20;18.80;;;;;13.98;39.28;98829.97;6241106;27;96876;-71
2022/02/10 19:19:27;;;;;;;;;20.00;18.00;;;;;14.01;39.48;98837.63;6238913;27;97819;-72
2022/02/10 19:22:30;;;;;;;;;16.80;15.80;;;;;14.00;39.19;98827.84;6226098;27;97546;-71
2022/02/10 19:25:36;;;;;;;;;17.20;16.80;;;;;14.07;39.18;98836.66;6239523;27;97552;-73
2022/02/10 19:28:39;;;;;;;;;19.00;17.00;;;;;14.00;39.30;98838.69;6246521;27;97452;-75
2022/02/10 19:31:45;;;;;;;;;19.50;18.50;;;;;14.01;39.46;98839.50;6246788;27;97783;-72
2022/02/10 19:34:50;;;;;;;;;19.00;18.00;;;;;14.01;39.23;98840.31;6249608;27;96410;-70
2022/02/10 19:38:01;;;;;;;;;18.60;16.60;;;;;13.98;39.33;98838.09;6244214;27;97675;-72
2022/02/10 19:41:04;;;;;;;;;19.60;18.00;;;;;14.00;39.30;98838.69;6239700;27;96738;-73
2022/02/10 19:44:27;;;;;;;;;21.00;18.25;;;;;14.04;39.33;98842.53;6240327;27;97492;-72
2022/02/10 19:47:35;;;;;;;;;18.00;17.20;;;;;14.09;39.20;98841.81;6226811;27;98767;-71
2022/02/10 19:50:38;;;;;;;;;21.00;19.00;;;;;14.14;39.00;98831.88;6257664;27;97037;-72
2022/02/10 19:53:41;;;;;;;;;19.25;17.75;;;;;14.16;39.04;98827.03;6236917;27;97418;-72
2022/02/10 19:56:45;;;;;;;;;18.00;16.20;;;;;14.02;39.00;98820.28;6237291;27;96967;-71
2022/02/10 19:59:53;;;;;;;;;20.00;18.00;;;;;14.09;39.16;98826.34;6253691;27;96976;-71
2022/02/10 20:02:59;;;;;;;;;18.00;16.00;;;;;14.14;38.99;98829.16;6235470;27;97907;-71
2022/02/10 20:06:03;;;;;;;;;16.25;15.00;;;;;14.14;38.98;98836.47;6262203;27;96826;-72
2022/02/10 20:09:06;;;;;;;;;13.80;13.20;;;;;14.18;38.84;98824.88;6254351;27;97908;-73
2022/02/10 20:12:10;;;;;;;;;15.60;15.60;;;;;14.23;38.91;98818.72;6253398;27;97350;-73
2022/02/10 20:15:14;;;;;;;;;16.40;14.00;;;;;14.28;38.73;98819.63;6252601;27;96615;-72
2022/02/10 20:18:19;;;;;;;;;17.60;14.80;;;;;14.31;38.86;98834.59;6241738;27;99258;-73
2022/02/10 20:21:22;;;;;;;;;15.40;14.40;;;;;14.33;38.89;98830.56;6257875;27;96483;-73
2022/02/10 20:24:25;;;;;;;;;13.00;13.00;;;;;14.35;38.65;98827.59;6258161;27;97710;-71
2022/02/10 20:27:29;;;;;;;;;15.40;14.00;;;;;14.44;38.49;98842.41;6214559;27;97166;-72
2022/02/10 20:30:32;;;;;;;;;12.00;12.00;;;;;14.48;38.54;98838.13;6259100;27;96534;-71
2022/02/10 20:33:37;;;;;;;;;14.75;13.00;;;;;14.59;38.32;98839.94;6256718;27;97660;-75
2022/02/10 20:36:41;;;;;;;;;13.60;13.00;;;;;14.57;38.32;98836.66;6235424;27;96866;-72
2022/02/10 20:39:44;;;;;;;;;14.00;12.25;;;;;14.66;38.55;98853.34;6259216;27;98069;-72
2022/02/10 20:42:48;;;;;;;;;15.00;13.00;;;;;14.78;38.24;98850.50;6248688;27;97021;-70
2022/02/10 20:45:56;;;;;;;;;16.00;15.00;;;;;14.82;38.41;98851.66;6251535;27;97146;-71
2022/02/10 20:49:02;;;;;;;;;17.40;15.40;;;;;14.69;38.26;98833.84;6206229;28;99708;-71
2022/02/10 20:52:06;;;;;;;;;20.00;17.00;;;;;14.90;38.21;98856.66;6246933;27;96786;-71
2022/02/10 20:55:10;;;;;;;;;16.00;16.00;;;;;14.93;38.44;98858.88;6259542;27;97488;-71
2022/02/10 20:58:13;;;;;;;;;18.60;16.40;;;;;14.87;38.20;98847.13;6246998;27;96411;-72
2022/02/10 21:01:17;;;;;;;;;17.60;16.60;;;;;14.86;38.29;98850.06;6238555;28;97529;-70
2022/02/10 21:04:21;;;;;;;;;19.20;17.20;;;;;14.92;38.17;98849.91;6251779;27;96419;-71
2022/02/10 21:07:31;;;;;;;;;22.40;18.60;;;;;14.92;38.20;98844.47;6219845;28;97933;-71
2022/02/10 21:10:36;;;;;;;;;23.60;21.60;;;;;14.87;38.16;98849.84;6239133;28;96560;-72
2022/02/10 21:13:42;;;;;;;;;25.60;21.60;;;;;14.85;38.42;98846.56;6220661;27;96548;-72
2022/02/10 21:16:45;;;;;;;;;23.50;21.00;;;;;14.65;38.58;98827.28;6239657;28;97452;-71
2022/02/10 21:19:50;;;;;;;;;27.00;25.00;;;;;14.76;38.66;98839.09;6238792;28;96906;-71
2022/02/10 21:23:01;;;;;;;;;25.00;23.00;;;;;14.72;38.74;98841.47;6251622;27;97627;-72
2022/02/10 21:26:06;;;;;;;;;28.60;24.60;;;;;14.67;39.02;98842.22;6254627;27;96739;-72
2022/02/10 21:29:09;;;;;;;;;31.00;27.75;;;;;14.61;39.15;98837.78;6219791;28;97018;-70
2022/02/10 21:32:12;;;;;;;;;27.00;24.00;;;;;14.57;39.16;98841.25;6246122;27;97667;-71
2022/02/10 21:35:30;;;;;;;;;29.00;27.00;;;;;14.50;39.22;98846.84;6225936;27;98283;-71
2022/02/10 21:38:37;;;;;;;;;27.60;26.40;;;;;14.42;39.68;98843.72;6225613;28;97771;-72
2022/02/10 21:55:37;;;;;;;;;23.20;21.60;;;;;14.41;39.71;98853.78;6233483;27;96643;-72
2022/02/10 22:12:12;;;;;;;;;19.00;17.00;;;;;14.67;38.80;98858.50;6262286;27;97088;-73
2022/02/10 22:18:46;;;;;;;;;18.00;16.00;;;;;14.79;38.81;98869.28;6247401;27;97554;-72
2022/02/10 22:21:52;;;;;;;;;18.40;16.00;;;;;14.82;38.66;98868.75;6237081;27;97071;-71
2022/02/10 22:24:58;;;;;;;;;17.00;15.40;;;;;14.90;38.54;98865.63;6217982;27;97300;-72
2022/02/10 22:28:10;;;;;;;;;17.00;15.60;;;;;14.97;38.42;98870.88;6232456;27;98472;-72
2022/02/10 22:34:39;;;;;;;;;17.00;15.00;;;;;14.89;38.70;98876.75;6213089;27;97392;-73
2022/02/10 22:37:45;;;;;;;;;15.60;13.60;;;;;14.97;38.63;98876.28;6261250;27;96508;-72
2022/02/10 22:41:03;;;;;;;;;17.75;14.00;;;;;14.87;38.70;98871.53;6242239;27;98482;-72
2022/02/10 22:44:07;;;;;;;;;16.25;15.25;;;;;14.97;38.46;98879.00;6242027;27;96816;-72
2022/02/10 22:47:11;;;;;;;;;16.00;14.00;;;;;15.02;38.37;98876.38;6237796;27;97223;-73
2022/02/10 22:50:14;;;;;;;;;16.00;14.60;;;;;14.92;38.50;98876.22;6236044;27;97959;-71
2022/02/10 22:53:17;;;;;;;;;15.00;14.00;;;;;14.87;38.66;98884.28;6244602;27;97202;-72
2022/02/10 22:56:24;;;;;;;;;16.00;14.00;;;;;14.98;38.67;98884.19;6241810;27;96804;-73
2022/02/10 22:59:30;;;;;;;;;15.00;14.67;;;;;14.90;38.55;98887.34;6261665;27;97443;-72
2022/02/10 23:02:33;;;;;;;;;16.60;15.60;;;;;14.85;38.90;98897.31;6209597;27;97731;-73
2022/02/10 23:05:38;;;;;;;;;15.00;13.40;;;;;14.74;38.99;98894.44;6229526;27;97462;-73
2022/02/10 23:08:42;;;;;;;;;16.33;15.00;;;;;14.79;39.10;98895.59;6262273;27;97530;-70
2022/02/10 23:11:48;;;;;;;;;14.00;13.80;;;;;14.74;38.99;98889.00;6240367;27;97437;-70
2022/02/10 23:14:51;;;;;;;;;16.75;14.75;;;;;14.86;38.94;98905.19;6236415;27;96626;-71
2022/02/10 23:17:54;;;;;;;;;16.60;15.00;;;;;14.88;39.11;98894.91;6236926;28;96882;-72
2022/02/10 23:21:00;;;;;;;;;16.50;14.50;;;;;14.89;39.00;98901.16;6218678;28;98490;-72
2022/02/10 23:24:03;;;;;;;;;15.00;14.00;;;;;14.90;38.94;98909.06;6237102;27;96448;-73
2022/02/10 23:27:08;;;;;;;;;17.25;16.00;;;;;14.84;39.07;98914.66;6236944;28;96547;-72
2022/02/10 23:30:11;;;;;;;;;16.00;14.00;;;;;14.69;39.07;98896.25;6236976;27;97464;-74
2022/02/10 23:33:19;;;;;;;;;18.00;16.00;;;;;14.83;39.27;98915.72;6218823;28;96398;-73
2022/02/10 23:39:55;;;;;;;;;16.60;15.00;;;;;14.88;39.24;98923.94;6194188;27;98289;-72
2022/02/10 23:43:00;;;;;;;;;16.00;15.60;;;;;14.89;39.34;98926.41;6261668;27;98196;-71
2022/02/10 23:46:04;;;;;;;;;18.00;17.00;;;;;14.92;39.38;98925.09;6266014;27;96982;-74
2022/02/10 23:49:08;;;;;;;;;20.40;17.40;;;;;14.83;39.63;98929.28;6260114;27;97488;-72
2022/02/10 23:52:15;;;;;;;;;17.60;16.00;;;;;14.82;39.23;98920.31;6241252;27;97027;-72
2022/02/10 23:55:24;;;;;;;;;16.00;15.00;;;;;14.74;39.68;98915.31;6222750;28;97104;-73
2022/02/10 23:58:36;;;;;;;;;15.60;15.00;;;;;14.74;39.82;98926.19;6219562;27;97279;-72
